sensor_id;sensor_type;location;lat;lon;timestamp;temperature;humidity
46319;DHT22;32042;50.916;2.926;2023-08-21T00:01:09;18.40;99.90
46319;DHT22;32042;50.916;2.926;2023-08-21T00:03:35;18.40;99.90
46319;DHT22;32042;50.916;2.926;2023-08-21T00:06:01;18.40;99.90
46319;DHT22;32042;50.916;2.926;2023-08-21T00:08:26;18.40;99.90
46319;DHT22;32042;50.916;2.926;2023-08-21T00:10:52;18.30;99.90
46319;DHT22;32042;50.916;2.926;2023-08-21T00:13:18;18.30;99.90
46319;DHT22;32042;50.916;2.926;2023-08-21T00:15:44;18.30;99.90
46319;DHT22;32042;50.916;2.926;2023-08-21T00:18:10;18.30;99.90
46319;DHT22;32042;50.916;2.926;2023-08-21T00:20:35;18.20;99.90
46319;DHT22;32042;50.916;2.926;2023-08-21T00:23:01;18.20;99.90
46319;DHT22;32042;50.916;2.926;2023-08-21T00:25:27;18.20;99.90
46319;DHT22;32042;50.916;2.926;2023-08-21T00:27:53;18.10;99.90
46319;DHT22;32042;50.916;2.926;2023-08-21T00:30:19;18.10;99.90
46319;DHT22;32042;50.916;2.926;2023-08-21T00:32:44;18.10;99.90
46319;DHT22;32042;50.916;2.926;2023-08-21T00:35:10;18.10;99.90
46319;DHT22;32042;50.916;2.926;2023-08-21T00:37:36;18.10;99.90
46319;DHT22;32042;50.916;2.926;2023-08-21T00:40:02;18.10;99.90
46319;DHT22;32042;50.916;2.926;2023-08-21T00:42:28;18.00;99.90
46319;DHT22;32042;50.916;2.926;2023-08-21T00:44:54;18.00;99.90
46319;DHT22;32042;50.916;2.926;2023-08-21T00:47:19;18.00;99.90
46319;DHT22;32042;50.916;2.926;2023-08-21T00:49:45;18.00;99.90
46319;DHT22;32042;50.916;2.926;2023-08-21T00:52:12;18.00;99.90
46319;DHT22;32042;50.916;2.926;2023-08-21T00:54:39;18.00;99.90
46319;DHT22;32042;50.916;2.926;2023-08-21T00:57:05;18.00;99.90
46319;DHT22;32042;50.916;2.926;2023-08-21T00:59:31;18.00;99.90
46319;DHT22;32042;50.916;2.926;2023-08-21T01:01:57;18.00;99.90
46319;DHT22;32042;50.916;2.926;2023-08-21T01:04:23;18.00;99.90
46319;DHT22;32042;50.916;2.926;2023-08-21T01:06:49;18.00;99.90
46319;DHT22;32042;50.916;2.926;2023-08-21T01:09:36;18.00;99.90
46319;DHT22;32042;50.916;2.926;2023-08-21T01:12:25;18.00;99.90
46319;DHT22;32042;50.916;2.926;2023-08-21T01:14:59;18.00;99.90
46319;DHT22;32042;50.916;2.926;2023-08-21T01:17:26;18.00;99.90
46319;DHT22;32042;50.916;2.926;2023-08-21T01:19:54;18.00;99.90
46319;DHT22;32042;50.916;2.926;2023-08-21T01:22:35;17.90;99.90
46319;DHT22;32042;50.916;2.926;2023-08-21T01:25:00;17.90;99.90
46319;DHT22;32042;50.916;2.926;2023-08-21T01:27:26;17.90;99.90
46319;DHT22;32042;50.916;2.926;2023-08-21T01:29:52;17.90;99.90
46319;DHT22;32042;50.916;2.926;2023-08-21T01:32:33;17.90;99.90
46319;DHT22;32042;50.916;2.926;2023-08-21T01:35:00;17.90;99.90
46319;DHT22;32042;50.916;2.926;2023-08-21T01:37:28;17.90;99.90
46319;DHT22;32042;50.916;2.926;2023-08-21T01:39:54;17.90;99.90
46319;DHT22;32042;50.916;2.926;2023-08-21T01:42:23;17.80;99.90
46319;DHT22;32042;50.916;2.926;2023-08-21T01:44:48;17.80;99.90
46319;DHT22;32042;50.916;2.926;2023-08-21T01:47:14;17.80;99.90
46319;DHT22;32042;50.916;2.926;2023-08-21T01:49:40;17.80;99.90
46319;DHT22;32042;50.916;2.926;2023-08-21T01:52:06;17.70;99.90
46319;DHT22;32042;50.916;2.926;2023-08-21T01:54:31;17.70;99.90
46319;DHT22;32042;50.916;2.926;2023-08-21T01:56:57;17.70;99.90
46319;DHT22;32042;50.916;2.926;2023-08-21T01:59:24;17.70;99.90
46319;DHT22;32042;50.916;2.926;2023-08-21T02:01:50;17.60;99.90
46319;DHT22;32042;50.916;2.926;2023-08-21T02:04:15;17.60;99.90
46319;DHT22;32042;50.916;2.926;2023-08-21T02:06:41;17.50;99.90
46319;DHT22;32042;50.916;2.926;2023-08-21T02:09:07;17.50;99.90
46319;DHT22;32042;50.916;2.926;2023-08-21T02:11:32;17.50;99.90
46319;DHT22;32042;50.916;2.926;2023-08-21T02:13:58;17.50;99.90
46319;DHT22;32042;50.916;2.926;2023-08-21T02:16:24;17.40;99.90
46319;DHT22;32042;50.916;2.926;2023-08-21T02:18:49;17.40;99.90
46319;DHT22;32042;50.916;2.926;2023-08-21T02:21:15;17.40;99.90
46319;DHT22;32042;50.916;2.926;2023-08-21T02:23:41;17.30;99.90
46319;DHT22;32042;50.916;2.926;2023-08-21T02:26:07;17.20;99.90
46319;DHT22;32042;50.916;2.926;2023-08-21T02:28:32;17.20;99.90
46319;DHT22;32042;50.916;2.926;2023-08-21T02:30:59;17.20;99.90
46319;DHT22;32042;50.916;2.926;2023-08-21T02:33:26;17.20;99.90
46319;DHT22;32042;50.916;2.926;2023-08-21T02:35:53;17.10;99.90
46319;DHT22;32042;50.916;2.926;2023-08-21T02:38:19;17.00;99.90
46319;DHT22;32042;50.916;2.926;2023-08-21T02:40:46;17.00;99.90
46319;DHT22;32042;50.916;2.926;2023-08-21T02:43:13;17.00;99.90
46319;DHT22;32042;50.916;2.926;2023-08-21T02:45:40;16.90;99.90
46319;DHT22;32042;50.916;2.926;2023-08-21T02:48:07;16.90;99.90
46319;DHT22;32042;50.916;2.926;2023-08-21T02:50:34;16.80;99.90
46319;DHT22;32042;50.916;2.926;2023-08-21T02:53:01;16.90;99.90
46319;DHT22;32042;50.916;2.926;2023-08-21T02:55:27;16.80;99.90
46319;DHT22;32042;50.916;2.926;2023-08-21T02:57:53;16.70;99.90
46319;DHT22;32042;50.916;2.926;2023-08-21T03:00:19;16.70;99.90
46319;DHT22;32042;50.916;2.926;2023-08-21T03:02:45;16.60;99.90
46319;DHT22;32042;50.916;2.926;2023-08-21T03:05:11;16.60;99.90
46319;DHT22;32042;50.916;2.926;2023-08-21T03:07:37;16.60;99.90
46319;DHT22;32042;50.916;2.926;2023-08-21T03:10:03;16.60;99.90
46319;DHT22;32042;50.916;2.926;2023-08-21T03:12:29;16.60;99.90
46319;DHT22;32042;50.916;2.926;2023-08-21T03:14:55;16.50;99.90
46319;DHT22;32042;50.916;2.926;2023-08-21T03:17:20;16.50;99.90
46319;DHT22;32042;50.916;2.926;2023-08-21T03:19:46;16.40;99.90
46319;DHT22;32042;50.916;2.926;2023-08-21T03:22:12;16.40;99.90
46319;DHT22;32042;50.916;2.926;2023-08-21T03:24:38;16.30;99.90
46319;DHT22;32042;50.916;2.926;2023-08-21T03:27:03;16.30;99.90
46319;DHT22;32042;50.916;2.926;2023-08-21T03:29:29;16.30;99.90
46319;DHT22;32042;50.916;2.926;2023-08-21T03:31:55;16.20;99.90
46319;DHT22;32042;50.916;2.926;2023-08-21T03:34:21;16.20;99.90
46319;DHT22;32042;50.916;2.926;2023-08-21T03:36:47;16.10;99.90
46319;DHT22;32042;50.916;2.926;2023-08-21T03:39:13;16.10;99.90
46319;DHT22;32042;50.916;2.926;2023-08-21T03:41:38;16.00;99.90
46319;DHT22;32042;50.916;2.926;2023-08-21T03:44:04;16.00;99.90
46319;DHT22;32042;50.916;2.926;2023-08-21T03:48:56;15.90;99.90
46319;DHT22;32042;50.916;2.926;2023-08-21T03:51:22;15.90;99.90
46319;DHT22;32042;50.916;2.926;2023-08-21T03:53:48;15.90;99.90
46319;DHT22;32042;50.916;2.926;2023-08-21T03:56:14;15.80;99.90
46319;DHT22;32042;50.916;2.926;2023-08-21T03:58:40;15.80;99.90
46319;DHT22;32042;50.916;2.926;2023-08-21T04:01:05;15.80;99.90
46319;DHT22;32042;50.916;2.926;2023-08-21T04:03:31;15.70;99.90
46319;DHT22;32042;50.916;2.926;2023-08-21T04:05:57;15.70;99.90
46319;DHT22;32042;50.916;2.926;2023-08-21T04:08:24;15.70;99.90
46319;DHT22;32042;50.916;2.926;2023-08-21T04:10:50;15.70;99.90
46319;DHT22;32042;50.916;2.926;2023-08-21T04:13:18;15.60;99.90
46319;DHT22;32042;50.916;2.926;2023-08-21T04:15:48;15.60;99.90
46319;DHT22;32042;50.916;2.926;2023-08-21T04:18:14;15.60;99.90
46319;DHT22;32042;50.916;2.926;2023-08-21T04:20:40;15.50;99.90
46319;DHT22;32042;50.916;2.926;2023-08-21T04:23:06;15.50;99.90
46319;DHT22;32042;50.916;2.926;2023-08-21T04:25:31;15.50;99.90
46319;DHT22;32042;50.916;2.926;2023-08-21T04:27:57;15.50;99.90
46319;DHT22;32042;50.916;2.926;2023-08-21T04:30:23;15.50;99.90
46319;DHT22;32042;50.916;2.926;2023-08-21T04:32:49;15.50;99.90
46319;DHT22;32042;50.916;2.926;2023-08-21T04:35:14;15.50;99.90
46319;DHT22;32042;50.916;2.926;2023-08-21T04:37:45;15.50;99.90
46319;DHT22;32042;50.916;2.926;2023-08-21T04:40:12;15.60;99.90
46319;DHT22;32042;50.916;2.926;2023-08-21T04:42:38;15.50;99.90
46319;DHT22;32042;50.916;2.926;2023-08-21T04:45:04;15.50;99.90
46319;DHT22;32042;50.916;2.926;2023-08-21T04:47:31;15.50;99.90
46319;DHT22;32042;50.916;2.926;2023-08-21T04:49:57;15.50;99.90
46319;DHT22;32042;50.916;2.926;2023-08-21T04:52:24;15.50;99.90
46319;DHT22;32042;50.916;2.926;2023-08-21T04:54:51;15.50;99.90
46319;DHT22;32042;50.916;2.926;2023-08-21T04:57:17;15.50;99.90
46319;DHT22;32042;50.916;2.926;2023-08-21T04:59:46;15.50;99.90
46319;DHT22;32042;50.916;2.926;2023-08-21T05:02:12;15.50;99.90
46319;DHT22;32042;50.916;2.926;2023-08-21T05:04:37;15.50;99.90
46319;DHT22;32042;50.916;2.926;2023-08-21T05:07:04;15.60;99.90
46319;DHT22;32042;50.916;2.926;2023-08-21T05:09:30;15.60;99.90
46319;DHT22;32042;50.916;2.926;2023-08-21T05:11:56;15.60;99.90
46319;DHT22;32042;50.916;2.926;2023-08-21T05:14:22;15.60;99.90
46319;DHT22;32042;50.916;2.926;2023-08-21T05:16:49;15.60;99.90
46319;DHT22;32042;50.916;2.926;2023-08-21T05:19:15;15.60;99.90
46319;DHT22;32042;50.916;2.926;2023-08-21T05:21:41;15.60;99.90
46319;DHT22;32042;50.916;2.926;2023-08-21T05:24:07;15.60;99.90
46319;DHT22;32042;50.916;2.926;2023-08-21T05:26:34;15.60;99.90
46319;DHT22;32042;50.916;2.926;2023-08-21T05:29:00;15.60;99.90
46319;DHT22;32042;50.916;2.926;2023-08-21T05:31:26;15.60;99.90
46319;DHT22;32042;50.916;2.926;2023-08-21T05:33:52;15.60;99.90
46319;DHT22;32042;50.916;2.926;2023-08-21T05:36:17;15.70;99.90
46319;DHT22;32042;50.916;2.926;2023-08-21T05:38:43;15.70;99.90
46319;DHT22;32042;50.916;2.926;2023-08-21T05:41:09;15.70;99.90
46319;DHT22;32042;50.916;2.926;2023-08-21T05:43:34;15.70;99.90
46319;DHT22;32042;50.916;2.926;2023-08-21T05:46:00;15.70;99.90
46319;DHT22;32042;50.916;2.926;2023-08-21T05:48:26;15.70;99.90
46319;DHT22;32042;50.916;2.926;2023-08-21T05:50:52;15.70;99.90
46319;DHT22;32042;50.916;2.926;2023-08-21T05:53:18;15.70;99.90
46319;DHT22;32042;50.916;2.926;2023-08-21T05:55:44;15.70;99.90
46319;DHT22;32042;50.916;2.926;2023-08-21T05:58:10;15.80;99.90
46319;DHT22;32042;50.916;2.926;2023-08-21T06:00:38;15.80;99.90
46319;DHT22;32042;50.916;2.926;2023-08-21T06:03:04;15.80;99.90
46319;DHT22;32042;50.916;2.926;2023-08-21T06:05:30;15.80;99.90
46319;DHT22;32042;50.916;2.926;2023-08-21T06:07:56;15.90;99.90
46319;DHT22;32042;50.916;2.926;2023-08-21T06:10:22;15.90;99.90
46319;DHT22;32042;50.916;2.926;2023-08-21T06:12:48;15.90;99.90
46319;DHT22;32042;50.916;2.926;2023-08-21T06:15:13;15.90;99.90
46319;DHT22;32042;50.916;2.926;2023-08-21T06:17:41;15.90;99.90
46319;DHT22;32042;50.916;2.926;2023-08-21T06:20:08;16.00;99.90
46319;DHT22;32042;50.916;2.926;2023-08-21T06:22:37;16.00;99.90
46319;DHT22;32042;50.916;2.926;2023-08-21T06:25:04;16.10;99.90
46319;DHT22;32042;50.916;2.926;2023-08-21T06:27:29;16.10;99.90
46319;DHT22;32042;50.916;2.926;2023-08-21T06:29:55;16.10;99.90
46319;DHT22;32042;50.916;2.926;2023-08-21T06:32:21;16.20;99.90
46319;DHT22;32042;50.916;2.926;2023-08-21T06:34:47;16.30;99.90
46319;DHT22;32042;50.916;2.926;2023-08-21T06:37:12;16.40;99.90
46319;DHT22;32042;50.916;2.926;2023-08-21T06:39:38;16.40;99.90
46319;DHT22;32042;50.916;2.926;2023-08-21T06:42:04;16.50;99.90
46319;DHT22;32042;50.916;2.926;2023-08-21T06:44:30;16.60;99.90
46319;DHT22;32042;50.916;2.926;2023-08-21T06:46:56;16.70;99.90
46319;DHT22;32042;50.916;2.926;2023-08-21T06:49:22;16.80;99.90
46319;DHT22;32042;50.916;2.926;2023-08-21T06:51:49;16.90;99.90
46319;DHT22;32042;50.916;2.926;2023-08-21T06:54:15;17.00;99.90
46319;DHT22;32042;50.916;2.926;2023-08-21T06:56:41;17.10;99.90
46319;DHT22;32042;50.916;2.926;2023-08-21T06:59:07;17.20;99.90
46319;DHT22;32042;50.916;2.926;2023-08-21T07:01:33;17.30;99.90
46319;DHT22;32042;50.916;2.926;2023-08-21T07:03:58;17.40;99.90
46319;DHT22;32042;50.916;2.926;2023-08-21T07:06:24;17.40;99.90
46319;DHT22;32042;50.916;2.926;2023-08-21T07:08:50;17.50;99.90
46319;DHT22;32042;50.916;2.926;2023-08-21T07:11:15;17.60;99.90
46319;DHT22;32042;50.916;2.926;2023-08-21T07:13:42;17.70;99.90
46319;DHT22;32042;50.916;2.926;2023-08-21T07:16:08;17.80;99.90
46319;DHT22;32042;50.916;2.926;2023-08-21T07:18:34;17.80;99.90
46319;DHT22;32042;50.916;2.926;2023-08-21T07:21:01;17.90;99.90
46319;DHT22;32042;50.916;2.926;2023-08-21T07:23:28;18.00;99.90
46319;DHT22;32042;50.916;2.926;2023-08-21T07:25:54;18.10;99.90
46319;DHT22;32042;50.916;2.926;2023-08-21T07:28:20;18.20;99.90
46319;DHT22;32042;50.916;2.926;2023-08-21T07:30:46;18.40;99.90
46319;DHT22;32042;50.916;2.926;2023-08-21T07:33:11;18.40;99.90
46319;DHT22;32042;50.916;2.926;2023-08-21T07:35:37;18.50;99.90
46319;DHT22;32042;50.916;2.926;2023-08-21T07:38:03;18.50;99.90
46319;DHT22;32042;50.916;2.926;2023-08-21T07:40:29;18.50;99.90
46319;DHT22;32042;50.916;2.926;2023-08-21T07:42:55;18.60;99.90
46319;DHT22;32042;50.916;2.926;2023-08-21T07:45:21;18.70;99.90
46319;DHT22;32042;50.916;2.926;2023-08-21T07:47:46;18.80;99.90
46319;DHT22;32042;50.916;2.926;2023-08-21T07:50:12;19.00;99.90
46319;DHT22;32042;50.916;2.926;2023-08-21T07:52:40;19.10;99.90
46319;DHT22;32042;50.916;2.926;2023-08-21T07:55:06;19.20;99.90
46319;DHT22;32042;50.916;2.926;2023-08-21T07:57:32;19.30;99.90
46319;DHT22;32042;50.916;2.926;2023-08-21T07:59:58;19.30;99.90
46319;DHT22;32042;50.916;2.926;2023-08-21T08:02:24;19.40;99.90
46319;DHT22;32042;50.916;2.926;2023-08-21T08:04:50;19.60;99.90
46319;DHT22;32042;50.916;2.926;2023-08-21T08:07:15;19.70;99.90
46319;DHT22;32042;50.916;2.926;2023-08-21T08:09:41;19.80;99.90
46319;DHT22;32042;50.916;2.926;2023-08-21T08:12:07;19.90;99.90
46319;DHT22;32042;50.916;2.926;2023-08-21T08:14:33;19.90;99.90
46319;DHT22;32042;50.916;2.926;2023-08-21T08:16:58;20.00;99.90
46319;DHT22;32042;50.916;2.926;2023-08-21T08:19:24;20.10;99.90
46319;DHT22;32042;50.916;2.926;2023-08-21T08:21:50;20.10;99.90
46319;DHT22;32042;50.916;2.926;2023-08-21T08:24:15;20.20;99.90
46319;DHT22;32042;50.916;2.926;2023-08-21T08:26:41;20.30;99.90
46319;DHT22;32042;50.916;2.926;2023-08-21T08:29:08;20.40;99.90
46319;DHT22;32042;50.916;2.926;2023-08-21T08:31:34;20.60;99.90
46319;DHT22;32042;50.916;2.926;2023-08-21T08:34:00;20.70;99.90
46319;DHT22;32042;50.916;2.926;2023-08-21T08:36:26;20.80;99.90
46319;DHT22;32042;50.916;2.926;2023-08-21T08:38:51;20.90;99.90
46319;DHT22;32042;50.916;2.926;2023-08-21T08:41:48;21.10;99.90
46319;DHT22;32042;50.916;2.926;2023-08-21T08:44:16;21.10;99.90
46319;DHT22;32042;50.916;2.926;2023-08-21T08:46:43;21.10;99.90
46319;DHT22;32042;50.916;2.926;2023-08-21T08:49:08;21.10;99.90
46319;DHT22;32042;50.916;2.926;2023-08-21T08:51:35;21.20;99.90
46319;DHT22;32042;50.916;2.926;2023-08-21T08:54:03;21.40;99.90
46319;DHT22;32042;50.916;2.926;2023-08-21T08:56:29;21.50;99.90
46319;DHT22;32042;50.916;2.926;2023-08-21T08:58:55;21.60;99.90
46319;DHT22;32042;50.916;2.926;2023-08-21T09:01:20;21.70;99.90
46319;DHT22;32042;50.916;2.926;2023-08-21T09:03:46;21.80;99.90
46319;DHT22;32042;50.916;2.926;2023-08-21T09:06:12;22.00;99.90
46319;DHT22;32042;50.916;2.926;2023-08-21T09:08:38;22.20;99.90
46319;DHT22;32042;50.916;2.926;2023-08-21T09:11:03;22.30;99.90
46319;DHT22;32042;50.916;2.926;2023-08-21T09:13:31;22.40;99.90
46319;DHT22;32042;50.916;2.926;2023-08-21T09:15:57;22.50;99.90
46319;DHT22;32042;50.916;2.926;2023-08-21T09:18:23;22.50;99.90
46319;DHT22;32042;50.916;2.926;2023-08-21T09:20:49;22.60;99.90
46319;DHT22;32042;50.916;2.926;2023-08-21T09:23:16;22.80;99.90
46319;DHT22;32042;50.916;2.926;2023-08-21T09:25:45;22.90;99.90
46319;DHT22;32042;50.916;2.926;2023-08-21T09:28:12;23.00;99.90
46319;DHT22;32042;50.916;2.926;2023-08-21T09:30:48;22.90;99.90
46319;DHT22;32042;50.916;2.926;2023-08-21T09:33:20;22.80;99.90
46319;DHT22;32042;50.916;2.926;2023-08-21T09:35:47;22.90;99.90
46319;DHT22;32042;50.916;2.926;2023-08-21T09:38:13;23.00;99.90
46319;DHT22;32042;50.916;2.926;2023-08-21T09:40:43;23.10;99.90
46319;DHT22;32042;50.916;2.926;2023-08-21T09:43:10;23.20;99.90
46319;DHT22;32042;50.916;2.926;2023-08-21T09:45:39;23.20;99.90
46319;DHT22;32042;50.916;2.926;2023-08-21T09:48:05;23.30;99.90
46319;DHT22;32042;50.916;2.926;2023-08-21T09:50:32;23.30;99.90
46319;DHT22;32042;50.916;2.926;2023-08-21T09:52:58;23.20;99.90
46319;DHT22;32042;50.916;2.926;2023-08-21T09:55:24;23.00;99.90
46319;DHT22;32042;50.916;2.926;2023-08-21T09:57:58;23.00;99.90
46319;DHT22;32042;50.916;2.926;2023-08-21T10:00:29;23.00;99.90
46319;DHT22;32042;50.916;2.926;2023-08-21T10:02:55;23.00;99.90
46319;DHT22;32042;50.916;2.926;2023-08-21T10:05:23;23.00;99.90
46319;DHT22;32042;50.916;2.926;2023-08-21T10:07:50;23.00;99.90
46319;DHT22;32042;50.916;2.926;2023-08-21T10:10:17;23.10;99.90
46319;DHT22;32042;50.916;2.926;2023-08-21T10:12:43;23.20;99.90
46319;DHT22;32042;50.916;2.926;2023-08-21T10:15:09;23.20;99.90
46319;DHT22;32042;50.916;2.926;2023-08-21T10:17:36;23.40;99.90
46319;DHT22;32042;50.916;2.926;2023-08-21T10:20:06;23.40;99.90
46319;DHT22;32042;50.916;2.926;2023-08-21T10:25:10;23.40;99.90
46319;DHT22;32042;50.916;2.926;2023-08-21T10:27:41;23.40;99.90
46319;DHT22;32042;50.916;2.926;2023-08-21T10:30:24;23.50;99.90
46319;DHT22;32042;50.916;2.926;2023-08-21T10:32:54;23.50;99.90
46319;DHT22;32042;50.916;2.926;2023-08-21T10:35:22;23.70;99.90
46319;DHT22;32042;50.916;2.926;2023-08-21T10:38:25;23.90;99.90
46319;DHT22;32042;50.916;2.926;2023-08-21T10:41:07;24.10;99.90
46319;DHT22;32042;50.916;2.926;2023-08-21T10:43:41;24.30;99.90
46319;DHT22;32042;50.916;2.926;2023-08-21T10:46:12;24.30;99.90
46319;DHT22;32042;50.916;2.926;2023-08-21T10:48:39;24.40;99.90
46319;DHT22;32042;50.916;2.926;2023-08-21T10:51:06;24.50;99.90
46319;DHT22;32042;50.916;2.926;2023-08-21T10:53:35;24.60;99.90
46319;DHT22;32042;50.916;2.926;2023-08-21T10:56:05;24.60;99.90
46319;DHT22;32042;50.916;2.926;2023-08-21T10:58:44;24.60;99.90
46319;DHT22;32042;50.916;2.926;2023-08-21T11:01:13;24.60;99.90
46319;DHT22;32042;50.916;2.926;2023-08-21T11:03:40;24.50;99.90
46319;DHT22;32042;50.916;2.926;2023-08-21T11:06:07;24.50;99.90
46319;DHT22;32042;50.916;2.926;2023-08-21T11:08:34;24.50;99.90
46319;DHT22;32042;50.916;2.926;2023-08-21T11:11:04;24.50;99.90
46319;DHT22;32042;50.916;2.926;2023-08-21T11:13:31;24.50;99.90
46319;DHT22;32042;50.916;2.926;2023-08-21T11:16:05;24.60;99.90
46319;DHT22;32042;50.916;2.926;2023-08-21T11:18:35;24.60;99.90
46319;DHT22;32042;50.916;2.926;2023-08-21T11:21:11;24.60;99.90
46319;DHT22;32042;50.916;2.926;2023-08-21T11:23:41;24.60;99.90
46319;DHT22;32042;50.916;2.926;2023-08-21T11:26:11;24.70;99.90
46319;DHT22;32042;50.916;2.926;2023-08-21T11:28:38;24.80;99.90
46319;DHT22;32042;50.916;2.926;2023-08-21T11:31:04;24.80;99.90
46319;DHT22;32042;50.916;2.926;2023-08-21T11:33:31;24.90;99.90
46319;DHT22;32042;50.916;2.926;2023-08-21T11:35:57;24.90;99.90
46319;DHT22;32042;50.916;2.926;2023-08-21T11:38:26;25.00;99.90
46319;DHT22;32042;50.916;2.926;2023-08-21T11:41:00;25.00;99.90
46319;DHT22;32042;50.916;2.926;2023-08-21T11:43:35;25.00;99.90
46319;DHT22;32042;50.916;2.926;2023-08-21T11:46:02;25.10;99.90
46319;DHT22;32042;50.916;2.926;2023-08-21T11:48:29;25.20;99.90
46319;DHT22;32042;50.916;2.926;2023-08-21T11:50:55;25.30;99.90
46319;DHT22;32042;50.916;2.926;2023-08-21T11:56:00;25.40;99.90
46319;DHT22;32042;50.916;2.926;2023-08-21T11:58:29;25.40;99.90
46319;DHT22;32042;50.916;2.926;2023-08-21T12:01:02;25.40;99.90
46319;DHT22;32042;50.916;2.926;2023-08-21T12:03:29;25.40;99.90
46319;DHT22;32042;50.916;2.926;2023-08-21T12:05:55;25.40;99.90
46319;DHT22;32042;50.916;2.926;2023-08-21T12:08:21;25.50;99.90
46319;DHT22;32042;50.916;2.926;2023-08-21T12:10:50;25.50;99.90
46319;DHT22;32042;50.916;2.926;2023-08-21T12:13:17;25.40;99.90
46319;DHT22;32042;50.916;2.926;2023-08-21T12:15:43;25.50;99.90
46319;DHT22;32042;50.916;2.926;2023-08-21T12:18:09;25.40;99.90
46319;DHT22;32042;50.916;2.926;2023-08-21T12:20:35;25.40;99.90
46319;DHT22;32042;50.916;2.926;2023-08-21T12:23:00;25.50;99.90
46319;DHT22;32042;50.916;2.926;2023-08-21T12:25:26;25.60;99.90
46319;DHT22;32042;50.916;2.926;2023-08-21T12:27:52;25.70;99.90
46319;DHT22;32042;50.916;2.926;2023-08-21T12:30:17;25.70;99.90
46319;DHT22;32042;50.916;2.926;2023-08-21T12:32:43;25.80;99.90
46319;DHT22;32042;50.916;2.926;2023-08-21T12:35:09;25.70;99.90
46319;DHT22;32042;50.916;2.926;2023-08-21T12:37:37;25.60;99.90
46319;DHT22;32042;50.916;2.926;2023-08-21T12:40:03;25.50;99.90
46319;DHT22;32042;50.916;2.926;2023-08-21T12:42:29;25.50;99.90
46319;DHT22;32042;50.916;2.926;2023-08-21T12:44:55;25.50;99.90
46319;DHT22;32042;50.916;2.926;2023-08-21T12:47:20;25.50;99.90
46319;DHT22;32042;50.916;2.926;2023-08-21T12:49:46;25.40;99.90
46319;DHT22;32042;50.916;2.926;2023-08-21T12:52:12;25.40;99.90
46319;DHT22;32042;50.916;2.926;2023-08-21T12:54:39;25.50;99.90
46319;DHT22;32042;50.916;2.926;2023-08-21T12:57:04;25.60;99.90
46319;DHT22;32042;50.916;2.926;2023-08-21T12:59:31;25.60;99.90
46319;DHT22;32042;50.916;2.926;2023-08-21T13:01:59;25.60;99.90
46319;DHT22;32042;50.916;2.926;2023-08-21T13:04:26;25.70;99.90
46319;DHT22;32042;50.916;2.926;2023-08-21T13:06:51;25.80;99.90
46319;DHT22;32042;50.916;2.926;2023-08-21T13:09:17;25.90;99.90
46319;DHT22;32042;50.916;2.926;2023-08-21T13:11:43;26.00;99.90
46319;DHT22;32042;50.916;2.926;2023-08-21T13:14:08;26.20;99.90
46319;DHT22;32042;50.916;2.926;2023-08-21T13:16:34;26.40;99.90
46319;DHT22;32042;50.916;2.926;2023-08-21T13:19:00;26.60;99.90
46319;DHT22;32042;50.916;2.926;2023-08-21T13:21:25;26.70;99.90
46319;DHT22;32042;50.916;2.926;2023-08-21T13:23:51;26.70;99.90
46319;DHT22;32042;50.916;2.926;2023-08-21T13:28:43;26.50;99.90
46319;DHT22;32042;50.916;2.926;2023-08-21T13:31:10;26.40;99.90
46319;DHT22;32042;50.916;2.926;2023-08-21T13:33:49;26.30;99.90
46319;DHT22;32042;50.916;2.926;2023-08-21T13:36:18;26.20;99.90
46319;DHT22;32042;50.916;2.926;2023-08-21T13:38:46;26.10;99.90
46319;DHT22;32042;50.916;2.926;2023-08-21T13:41:11;26.20;99.90
46319;DHT22;32042;50.916;2.926;2023-08-21T13:43:37;26.20;99.90
46319;DHT22;32042;50.916;2.926;2023-08-21T13:46:04;26.20;99.90
46319;DHT22;32042;50.916;2.926;2023-08-21T13:48:30;26.20;99.90
46319;DHT22;32042;50.916;2.926;2023-08-21T13:50:56;26.30;99.90
46319;DHT22;32042;50.916;2.926;2023-08-21T13:53:22;26.30;99.90
46319;DHT22;32042;50.916;2.926;2023-08-21T13:55:49;26.40;99.90
46319;DHT22;32042;50.916;2.926;2023-08-21T13:58:15;26.30;99.90
46319;DHT22;32042;50.916;2.926;2023-08-21T14:00:41;26.20;99.90
46319;DHT22;32042;50.916;2.926;2023-08-21T14:03:07;26.00;99.90
46319;DHT22;32042;50.916;2.926;2023-08-21T14:05:32;25.90;99.90
46319;DHT22;32042;50.916;2.926;2023-08-21T14:07:59;25.80;99.90
46319;DHT22;32042;50.916;2.926;2023-08-21T14:10:25;25.80;99.90
46319;DHT22;32042;50.916;2.926;2023-08-21T14:12:51;25.80;99.90
46319;DHT22;32042;50.916;2.926;2023-08-21T14:15:17;25.80;99.90
46319;DHT22;32042;50.916;2.926;2023-08-21T14:17:45;26.00;99.90
46319;DHT22;32042;50.916;2.926;2023-08-21T14:20:14;26.00;99.90
46319;DHT22;32042;50.916;2.926;2023-08-21T14:22:40;26.00;99.90
46319;DHT22;32042;50.916;2.926;2023-08-21T14:25:06;26.00;99.90
46319;DHT22;32042;50.916;2.926;2023-08-21T14:27:32;25.90;99.90
46319;DHT22;32042;50.916;2.926;2023-08-21T14:29:58;25.90;99.90
46319;DHT22;32042;50.916;2.926;2023-08-21T14:32:24;25.80;99.90
46319;DHT22;32042;50.916;2.926;2023-08-21T14:34:51;25.70;99.90
46319;DHT22;32042;50.916;2.926;2023-08-21T14:37:18;25.70;99.90
46319;DHT22;32042;50.916;2.926;2023-08-21T14:39:44;25.70;99.90
46319;DHT22;32042;50.916;2.926;2023-08-21T14:42:10;25.70;99.90
46319;DHT22;32042;50.916;2.926;2023-08-21T14:44:37;25.80;99.90
46319;DHT22;32042;50.916;2.926;2023-08-21T14:47:03;25.80;99.90
46319;DHT22;32042;50.916;2.926;2023-08-21T14:49:28;25.70;99.90
46319;DHT22;32042;50.916;2.926;2023-08-21T14:51:54;25.70;99.90
46319;DHT22;32042;50.916;2.926;2023-08-21T14:54:20;25.70;99.90
46319;DHT22;32042;50.916;2.926;2023-08-21T14:56:46;25.60;99.90
46319;DHT22;32042;50.916;2.926;2023-08-21T14:59:12;25.60;99.90
46319;DHT22;32042;50.916;2.926;2023-08-21T15:01:40;25.70;99.90
46319;DHT22;32042;50.916;2.926;2023-08-21T15:04:06;25.80;99.90
46319;DHT22;32042;50.916;2.926;2023-08-21T15:06:33;25.80;99.90
46319;DHT22;32042;50.916;2.926;2023-08-21T15:08:59;25.90;99.90
46319;DHT22;32042;50.916;2.926;2023-08-21T15:11:25;26.00;99.90
46319;DHT22;32042;50.916;2.926;2023-08-21T15:13:54;26.00;99.90
46319;DHT22;32042;50.916;2.926;2023-08-21T15:16:19;26.10;99.90
46319;DHT22;32042;50.916;2.926;2023-08-21T15:18:45;26.10;99.90
46319;DHT22;32042;50.916;2.926;2023-08-21T15:21:13;26.10;99.90
46319;DHT22;32042;50.916;2.926;2023-08-21T15:23:38;26.10;99.90
46319;DHT22;32042;50.916;2.926;2023-08-21T15:26:04;26.10;99.90
46319;DHT22;32042;50.916;2.926;2023-08-21T15:28:30;26.10;99.90
46319;DHT22;32042;50.916;2.926;2023-08-21T15:30:55;26.10;99.90
46319;DHT22;32042;50.916;2.926;2023-08-21T15:33:21;26.20;99.90
46319;DHT22;32042;50.916;2.926;2023-08-21T15:35:47;26.20;99.90
46319;DHT22;32042;50.916;2.926;2023-08-21T15:38:13;26.40;99.90